sensor_id;sensor_type;location;lat;lon;timestamp;pressure;altitude;pressure_sealevel;temperature;humidity
54022;BME280;39936;51.058;17.220;2023-07-31T00:01:12;101304.02;;;15.79;100.00
54022;BME280;39936;51.058;17.220;2023-07-31T00:05:17;101306.33;;;15.80;100.00
54022;BME280;39936;51.058;17.220;2023-07-31T00:09:00;101306.65;;;15.85;100.00
54022;BME280;39936;51.058;17.220;2023-07-31T00:12:39;101299.03;;;15.83;100.00
54022;BME280;39936;51.058;17.220;2023-07-31T00:16:11;101314.43;;;15.87;100.00
54022;BME280;39936;51.058;17.220;2023-07-31T00:19:37;101317.70;;;15.90;100.00
54022;BME280;39936;51.058;17.220;2023-07-31T00:23:28;101316.08;;;15.89;100.00
54022;BME280;39936;51.058;17.220;2023-07-31T00:27:30;101311.02;;;15.83;100.00
54022;BME280;39936;51.058;17.220;2023-07-31T00:31:05;101319.13;;;15.81;100.00
54022;BME280;39936;51.058;17.220;2023-07-31T00:34:44;101316.11;;;15.79;100.00
54022;BME280;39936;51.058;17.220;2023-07-31T00:38:17;101319.65;;;15.77;100.00
54022;BME280;39936;51.058;17.220;2023-07-31T00:42:31;101313.38;;;15.73;100.00
54022;BME280;39936;51.058;17.220;2023-07-31T00:46:05;101315.31;;;15.82;100.00
54022;BME280;39936;51.058;17.220;2023-07-31T00:50:02;101311.80;;;15.85;100.00
54022;BME280;39936;51.058;17.220;2023-07-31T00:53:25;101315.48;;;15.89;100.00
54022;BME280;39936;51.058;17.220;2023-07-31T01:01:03;101312.09;;;15.81;100.00
54022;BME280;39936;51.058;17.220;2023-07-31T01:04:46;101303.80;;;15.72;100.00
54022;BME280;39936;51.058;17.220;2023-07-31T01:12:14;101287.55;;;15.59;100.00
54022;BME280;39936;51.058;17.220;2023-07-31T01:16:02;101306.16;;;15.68;100.00
54022;BME280;39936;51.058;17.220;2023-07-31T01:19:38;101298.84;;;15.65;100.00
54022;BME280;39936;51.058;17.220;2023-07-31T01:27:25;101304.13;;;15.72;100.00
54022;BME280;39936;51.058;17.220;2023-07-31T01:31:32;101306.62;;;15.74;100.00
54022;BME280;39936;51.058;17.220;2023-07-31T01:35:10;101311.80;;;15.76;100.00
54022;BME280;39936;51.058;17.220;2023-07-31T01:38:39;101288.05;;;15.62;100.00
54022;BME280;39936;51.058;17.220;2023-07-31T01:42:14;101309.98;;;15.77;100.00
54022;BME280;39936;51.058;17.220;2023-07-31T01:45:53;101311.50;;;15.74;100.00
54022;BME280;39936;51.058;17.220;2023-07-31T01:49:35;101312.02;;;15.73;100.00
54022;BME280;39936;51.058;17.220;2023-07-31T01:52:59;101308.55;;;15.70;100.00
54022;BME280;39936;51.058;17.220;2023-07-31T01:56:34;101306.95;;;15.66;100.00
54022;BME280;39936;51.058;17.220;2023-07-31T02:00:01;101310.05;;;15.68;100.00
54022;BME280;39936;51.058;17.220;2023-07-31T02:03:22;101312.85;;;15.66;100.00
54022;BME280;39936;51.058;17.220;2023-07-31T02:07:44;101314.14;;;15.62;100.00
54022;BME280;39936;51.058;17.220;2023-07-31T02:11:05;101302.08;;;15.56;100.00
54022;BME280;39936;51.058;17.220;2023-07-31T02:14:46;101313.62;;;15.62;100.00
54022;BME280;39936;51.058;17.220;2023-07-31T02:18:44;101314.24;;;15.62;100.00
54022;BME280;39936;51.058;17.220;2023-07-31T02:22:03;101308.23;;;15.59;100.00
54022;BME280;39936;51.058;17.220;2023-07-31T02:25:23;101304.66;;;15.52;100.00
54022;BME280;39936;51.058;17.220;2023-07-31T02:29:20;101298.93;;;15.47;100.00
54022;BME280;39936;51.058;17.220;2023-07-31T02:32:43;101313.96;;;15.56;100.00
54022;BME280;39936;51.058;17.220;2023-07-31T02:36:40;101314.82;;;15.54;100.00
54022;BME280;39936;51.058;17.220;2023-07-31T02:40:12;101312.23;;;15.53;100.00
54022;BME280;39936;51.058;17.220;2023-07-31T02:44:15;101311.99;;;15.56;100.00
54022;BME280;39936;51.058;17.220;2023-07-31T02:48:21;101311.24;;;15.51;100.00
54022;BME280;39936;51.058;17.220;2023-07-31T02:52:05;101311.65;;;15.54;100.00
54022;BME280;39936;51.058;17.220;2023-07-31T02:55:22;101313.16;;;15.51;100.00
54022;BME280;39936;51.058;17.220;2023-07-31T02:59:11;101316.15;;;15.52;100.00
54022;BME280;39936;51.058;17.220;2023-07-31T03:03:11;101322.41;;;15.55;100.00
54022;BME280;39936;51.058;17.220;2023-07-31T03:06:53;101323.19;;;15.64;100.00
54022;BME280;39936;51.058;17.220;2023-07-31T03:10:22;101325.68;;;15.56;100.00
54022;BME280;39936;51.058;17.220;2023-07-31T03:14:09;101320.63;;;15.53;100.00
54022;BME280;39936;51.058;17.220;2023-07-31T03:17:34;101322.54;;;15.49;100.00
54022;BME280;39936;51.058;17.220;2023-07-31T03:21:24;101322.93;;;15.43;100.00
54022;BME280;39936;51.058;17.220;2023-07-31T03:24:47;101324.89;;;15.37;100.00
54022;BME280;39936;51.058;17.220;2023-07-31T03:28:30;101324.27;;;15.37;100.00
54022;BME280;39936;51.058;17.220;2023-07-31T03:32:29;101323.61;;;15.33;100.00
54022;BME280;39936;51.058;17.220;2023-07-31T03:39:55;101328.74;;;15.40;100.00
54022;BME280;39936;51.058;17.220;2023-07-31T03:43:35;101291.75;;;15.27;100.00
54022;BME280;39936;51.058;17.220;2023-07-31T03:47:12;101314.09;;;15.48;100.00
54022;BME280;39936;51.058;17.220;2023-07-31T03:51:09;101317.63;;;15.53;100.00
54022;BME280;39936;51.058;17.220;2023-07-31T03:54:32;101319.42;;;15.57;100.00
54022;BME280;39936;51.058;17.220;2023-07-31T03:58:19;101323.63;;;15.58;100.00
54022;BME280;39936;51.058;17.220;2023-07-31T04:02:04;101323.20;;;15.57;100.00
54022;BME280;39936;51.058;17.220;2023-07-31T04:06:20;101323.65;;;15.50;100.00
54022;BME280;39936;51.058;17.220;2023-07-31T04:09:47;101317.27;;;15.54;100.00
54022;BME280;39936;51.058;17.220;2023-07-31T04:13:49;101317.00;;;15.50;100.00
54022;BME280;39936;51.058;17.220;2023-07-31T04:17:18;101315.95;;;15.47;100.00
54022;BME280;39936;51.058;17.220;2023-07-31T04:20:34;101315.94;;;15.55;100.00
54022;BME280;39936;51.058;17.220;2023-07-31T04:24:16;101315.51;;;15.60;100.00
54022;BME280;39936;51.058;17.220;2023-07-31T04:28:15;101293.85;;;15.62;100.00
54022;BME280;39936;51.058;17.220;2023-07-31T04:31:34;101298.47;;;15.76;100.00
54022;BME280;39936;51.058;17.220;2023-07-31T04:34:53;101320.09;;;16.05;100.00
54022;BME280;39936;51.058;17.220;2023-07-31T04:39:03;101318.65;;;16.36;100.00
54022;BME280;39936;51.058;17.220;2023-07-31T04:42:52;101315.33;;;16.76;100.00
54022;BME280;39936;51.058;17.220;2023-07-31T04:46:19;101307.99;;;17.01;100.00
54022;BME280;39936;51.058;17.220;2023-07-31T04:49:55;101311.01;;;17.01;99.00
54022;BME280;39936;51.058;17.220;2023-07-31T04:53:36;101309.92;;;16.96;98.73
54022;BME280;39936;51.058;17.220;2023-07-31T04:57:12;101306.58;;;17.03;98.14
54022;BME280;39936;51.058;17.220;2023-07-31T05:01:03;101305.02;;;17.00;98.28
54022;BME280;39936;51.058;17.220;2023-07-31T05:04:42;101298.12;;;17.00;97.79
54022;BME280;39936;51.058;17.220;2023-07-31T05:08:21;101302.55;;;17.07;96.80
54022;BME280;39936;51.058;17.220;2023-07-31T05:12:11;101306.27;;;17.22;96.32
54022;BME280;39936;51.058;17.220;2023-07-31T05:16:02;101297.91;;;17.25;96.28
54022;BME280;39936;51.058;17.220;2023-07-31T05:20:05;101306.91;;;17.50;95.81
54022;BME280;39936;51.058;17.220;2023-07-31T05:23:58;101300.92;;;17.88;95.56
54022;BME280;39936;51.058;17.220;2023-07-31T05:27:52;101307.62;;;18.20;93.87
54022;BME280;39936;51.058;17.220;2023-07-31T05:31:35;101306.49;;;18.44;89.18
54022;BME280;39936;51.058;17.220;2023-07-31T05:35:10;101310.73;;;18.46;85.74
54022;BME280;39936;51.058;17.220;2023-07-31T05:38:45;101309.55;;;18.66;84.48
54022;BME280;39936;51.058;17.220;2023-07-31T05:46:16;101305.22;;;18.86;82.21
54022;BME280;39936;51.058;17.220;2023-07-31T05:50:19;101302.15;;;18.87;82.24
54022;BME280;39936;51.058;17.220;2023-07-31T05:53:50;101300.64;;;18.99;82.93
54022;BME280;39936;51.058;17.220;2023-07-31T05:57:31;101300.91;;;19.16;82.58
54022;BME280;39936;51.058;17.220;2023-07-31T06:01:21;101298.58;;;19.22;83.52
54022;BME280;39936;51.058;17.220;2023-07-31T06:05:24;101299.51;;;19.18;83.07
54022;BME280;39936;51.058;17.220;2023-07-31T06:09:16;101299.31;;;19.36;83.87
54022;BME280;39936;51.058;17.220;2023-07-31T06:12:53;101297.57;;;19.44;83.19
54022;BME280;39936;51.058;17.220;2023-07-31T06:16:13;101295.87;;;19.52;82.44
54022;BME280;39936;51.058;17.220;2023-07-31T06:20:13;101297.98;;;19.54;81.19
54022;BME280;39936;51.058;17.220;2023-07-31T06:24:38;101291.83;;;19.72;79.81
54022;BME280;39936;51.058;17.220;2023-07-31T06:27:58;101295.48;;;19.81;78.45
54022;BME280;39936;51.058;17.220;2023-07-31T06:31:36;101291.27;;;19.62;75.44
54022;BME280;39936;51.058;17.220;2023-07-31T06:35:34;101287.26;;;19.43;77.12
54022;BME280;39936;51.058;17.220;2023-07-31T06:38:53;101286.81;;;19.47;78.53
54022;BME280;39936;51.058;17.220;2023-07-31T06:42:19;101281.48;;;19.27;78.30
54022;BME280;39936;51.058;17.220;2023-07-31T06:45:56;101281.63;;;19.19;78.06
54022;BME280;39936;51.058;17.220;2023-07-31T06:50:10;101282.26;;;19.10;79.55
54022;BME280;39936;51.058;17.220;2023-07-31T06:53:54;101288.14;;;19.18;81.15
54022;BME280;39936;51.058;17.220;2023-07-31T06:57:41;101288.14;;;19.42;80.24
54022;BME280;39936;51.058;17.220;2023-07-31T07:00:59;101292.44;;;19.63;80.30
54022;BME280;39936;51.058;17.220;2023-07-31T07:04:50;101288.50;;;19.68;78.16
54022;BME280;39936;51.058;17.220;2023-07-31T07:08:41;101287.87;;;19.92;79.74
54022;BME280;39936;51.058;17.220;2023-07-31T07:12:53;101287.31;;;20.22;79.52
54022;BME280;39936;51.058;17.220;2023-07-31T07:16:33;101286.02;;;20.19;76.78
54022;BME280;39936;51.058;17.220;2023-07-31T07:20:49;101282.14;;;20.11;78.04
54022;BME280;39936;51.058;17.220;2023-07-31T07:24:35;101274.06;;;19.88;76.48
54022;BME280;39936;51.058;17.220;2023-07-31T07:28:09;101276.73;;;19.96;76.39
54022;BME280;39936;51.058;17.220;2023-07-31T07:32:03;101271.99;;;19.98;76.34
54022;BME280;39936;51.058;17.220;2023-07-31T07:35:53;101269.12;;;20.15;77.96
54022;BME280;39936;51.058;17.220;2023-07-31T07:39:22;101267.05;;;20.21;78.72
54022;BME280;39936;51.058;17.220;2023-07-31T07:46:41;101260.25;;;20.12;76.82
54022;BME280;39936;51.058;17.220;2023-07-31T07:50:28;101258.55;;;20.03;79.32
54022;BME280;39936;51.058;17.220;2023-07-31T07:54:14;101254.58;;;20.04;77.62
54022;BME280;39936;51.058;17.220;2023-07-31T07:57:49;101256.78;;;19.76;78.13
54022;BME280;39936;51.058;17.220;2023-07-31T08:05:01;101245.30;;;20.09;76.35
54022;BME280;39936;51.058;17.220;2023-07-31T08:12:54;101239.16;;;20.80;74.27
54022;BME280;39936;51.058;17.220;2023-07-31T08:17:05;101235.45;;;21.07;68.95
54022;BME280;39936;51.058;17.220;2023-07-31T08:21:11;101231.55;;;21.18;69.98
54022;BME280;39936;51.058;17.220;2023-07-31T08:24:48;101225.45;;;21.46;68.05
54022;BME280;39936;51.058;17.220;2023-07-31T08:28:06;101229.16;;;21.52;68.01
54022;BME280;39936;51.058;17.220;2023-07-31T08:32:09;101232.48;;;21.51;68.13
54022;BME280;39936;51.058;17.220;2023-07-31T08:40:13;101232.69;;;22.31;65.56
54022;BME280;39936;51.058;17.220;2023-07-31T08:44:07;101232.79;;;22.47;65.03
54022;BME280;39936;51.058;17.220;2023-07-31T08:47:28;101227.72;;;22.79;62.29
54022;BME280;39936;51.058;17.220;2023-07-31T08:55:15;101218.23;;;22.97;59.03
54022;BME280;39936;51.058;17.220;2023-07-31T08:59:09;101195.91;;;22.86;62.82
54022;BME280;39936;51.058;17.220;2023-07-31T09:06:21;101216.08;;;22.92;59.24
54022;BME280;39936;51.058;17.220;2023-07-31T09:09:50;101188.77;;;22.46;59.58
54022;BME280;39936;51.058;17.220;2023-07-31T09:14:14;101224.41;;;22.47;60.47
54022;BME280;39936;51.058;17.220;2023-07-31T09:17:46;101228.48;;;21.90;65.91
54022;BME280;39936;51.058;17.220;2023-07-31T09:26:40;101227.40;;;21.47;65.21
54022;BME280;39936;51.058;17.220;2023-07-31T09:30:23;101227.74;;;21.56;68.43
54022;BME280;39936;51.058;17.220;2023-07-31T09:33:57;101224.49;;;21.77;69.21
54022;BME280;39936;51.058;17.220;2023-07-31T09:37:42;101231.88;;;21.71;66.80
54022;BME280;39936;51.058;17.220;2023-07-31T09:42:07;101240.67;;;21.57;64.08
54022;BME280;39936;51.058;17.220;2023-07-31T09:45:58;101242.11;;;21.44;61.52
54022;BME280;39936;51.058;17.220;2023-07-31T09:53:34;101253.32;;;20.76;64.74
54022;BME280;39936;51.058;17.220;2023-07-31T09:57:41;101263.73;;;20.60;66.12
54022;BME280;39936;51.058;17.220;2023-07-31T10:01:23;101265.00;;;20.18;65.76
54022;BME280;39936;51.058;17.220;2023-07-31T10:16:22;101252.47;;;20.12;68.32
54022;BME280;39936;51.058;17.220;2023-07-31T10:20:20;101247.44;;;20.21;68.12
54022;BME280;39936;51.058;17.220;2023-07-31T10:24:19;101249.30;;;20.20;68.25
54022;BME280;39936;51.058;17.220;2023-07-31T10:27:41;101249.74;;;20.14;69.02
54022;BME280;39936;51.058;17.220;2023-07-31T10:30:58;101241.72;;;20.23;69.93
54022;BME280;39936;51.058;17.220;2023-07-31T10:38:40;101241.18;;;20.33;71.29
54022;BME280;39936;51.058;17.220;2023-07-31T10:42:18;101233.54;;;20.48;70.41
54022;BME280;39936;51.058;17.220;2023-07-31T10:46:19;101223.78;;;20.77;69.55
54022;BME280;39936;51.058;17.220;2023-07-31T10:53:39;101220.98;;;20.76;70.03
54022;BME280;39936;51.058;17.220;2023-07-31T10:57:50;101222.20;;;20.63;68.14
54022;BME280;39936;51.058;17.220;2023-07-31T11:01:55;101221.80;;;20.56;68.34
54022;BME280;39936;51.058;17.220;2023-07-31T11:09:38;101181.80;;;20.63;67.48
54022;BME280;39936;51.058;17.220;2023-07-31T11:13:19;101201.98;;;21.15;68.50
54022;BME280;39936;51.058;17.220;2023-07-31T11:17:39;101198.16;;;21.38;67.12
54022;BME280;39936;51.058;17.220;2023-07-31T11:21:33;101192.13;;;21.49;66.89
54022;BME280;39936;51.058;17.220;2023-07-31T11:24:58;101189.50;;;21.72;66.08
54022;BME280;39936;51.058;17.220;2023-07-31T11:29:01;101183.83;;;21.83;63.56
54022;BME280;39936;51.058;17.220;2023-07-31T11:32:50;101179.59;;;21.95;63.32
54022;BME280;39936;51.058;17.220;2023-07-31T11:37:40;101174.69;;;22.26;65.06
54022;BME280;39936;51.058;17.220;2023-07-31T11:41:42;101166.17;;;22.41;60.57
54022;BME280;39936;51.058;17.220;2023-07-31T11:45:35;101155.77;;;22.73;62.14
54022;BME280;39936;51.058;17.220;2023-07-31T11:49:15;101151.17;;;22.50;61.27
54022;BME280;39936;51.058;17.220;2023-07-31T11:53:08;101144.70;;;22.60;59.73
54022;BME280;39936;51.058;17.220;2023-07-31T11:56:37;101136.16;;;22.63;61.31
54022;BME280;39936;51.058;17.220;2023-07-31T12:03:58;101126.56;;;22.57;62.82
54022;BME280;39936;51.058;17.220;2023-07-31T12:11:43;101117.35;;;22.99;61.90
54022;BME280;39936;51.058;17.220;2023-07-31T12:19:03;101106.30;;;23.40;59.99
54022;BME280;39936;51.058;17.220;2023-07-31T12:23:02;101100.33;;;23.28;59.16
54022;BME280;39936;51.058;17.220;2023-07-31T12:27:11;101099.73;;;22.88;58.54
54022;BME280;39936;51.058;17.220;2023-07-31T12:30:31;101093.54;;;22.87;61.00
54022;BME280;39936;51.058;17.220;2023-07-31T12:34:44;101087.89;;;23.06;61.29
54022;BME280;39936;51.058;17.220;2023-07-31T12:38:25;101079.85;;;22.77;61.37
54022;BME280;39936;51.058;17.220;2023-07-31T12:45:54;101076.56;;;22.90;60.59
54022;BME280;39936;51.058;17.220;2023-07-31T12:49:22;101070.59;;;22.94;60.38
54022;BME280;39936;51.058;17.220;2023-07-31T12:53:11;101066.92;;;22.96;58.70
54022;BME280;39936;51.058;17.220;2023-07-31T12:57:33;101062.98;;;22.42;60.45
54022;BME280;39936;51.058;17.220;2023-07-31T13:02:14;101057.93;;;22.35;61.32
54022;BME280;39936;51.058;17.220;2023-07-31T13:06:01;101051.95;;;22.60;63.01
54022;BME280;39936;51.058;17.220;2023-07-31T13:09:57;101046.89;;;22.95;60.28
54022;BME280;39936;51.058;17.220;2023-07-31T13:13:19;101018.42;;;22.67;58.79
54022;BME280;39936;51.058;17.220;2023-07-31T13:16:58;101042.59;;;22.60;59.66
54022;BME280;39936;51.058;17.220;2023-07-31T13:20:36;101039.55;;;22.37;61.55
54022;BME280;39936;51.058;17.220;2023-07-31T13:24:14;101037.66;;;22.31;63.04
54022;BME280;39936;51.058;17.220;2023-07-31T13:28:03;101041.16;;;22.36;63.18
54022;BME280;39936;51.058;17.220;2023-07-31T13:31:57;101036.52;;;22.57;60.66
54022;BME280;39936;51.058;17.220;2023-07-31T13:35:27;101030.26;;;22.73;59.95
54022;BME280;39936;51.058;17.220;2023-07-31T13:39:15;100996.71;;;22.61;61.30
54022;BME280;39936;51.058;17.220;2023-07-31T13:47:05;101009.80;;;22.93;58.64
54022;BME280;39936;51.058;17.220;2023-07-31T13:50:23;101008.10;;;23.12;57.96
54022;BME280;39936;51.058;17.220;2023-07-31T13:53:58;101008.56;;;23.35;57.11
54022;BME280;39936;51.058;17.220;2023-07-31T14:01:44;101007.00;;;23.31;54.74
54022;BME280;39936;51.058;17.220;2023-07-31T14:05:22;101006.95;;;23.14;55.90
54022;BME280;39936;51.058;17.220;2023-07-31T14:08:50;101004.10;;;22.73;57.30
54022;BME280;39936;51.058;17.220;2023-07-31T14:12:33;101009.27;;;22.62;58.73
54022;BME280;39936;51.058;17.220;2023-07-31T14:16:31;101004.32;;;22.61;58.63
54022;BME280;39936;51.058;17.220;2023-07-31T14:20:47;100997.34;;;22.62;60.99
54022;BME280;39936;51.058;17.220;2023-07-31T14:24:12;101000.61;;;22.64;61.58
54022;BME280;39936;51.058;17.220;2023-07-31T14:28:10;100996.63;;;22.63;61.19
54022;BME280;39936;51.058;17.220;2023-07-31T14:32:41;100997.16;;;22.73;60.15
54022;BME280;39936;51.058;17.220;2023-07-31T14:36:10;100998.70;;;22.61;59.98
54022;BME280;39936;51.058;17.220;2023-07-31T14:39:41;100998.71;;;22.41;59.80
54022;BME280;39936;51.058;17.220;2023-07-31T14:43:21;100997.34;;;22.45;59.04
54022;BME280;39936;51.058;17.220;2023-07-31T14:50:57;100989.65;;;22.51;59.45
54022;BME280;39936;51.058;17.220;2023-07-31T14:54:49;100974.73;;;22.53;58.48
54022;BME280;39936;51.058;17.220;2023-07-31T14:58:47;100977.38;;;22.43;59.17
54022;BME280;39936;51.058;17.220;2023-07-31T15:02:44;100978.59;;;22.39;59.67
54022;BME280;39936;51.058;17.220;2023-07-31T15:06:41;100977.95;;;22.29;59.61
54022;BME280;39936;51.058;17.220;2023-07-31T15:10:37;100969.02;;;22.45;60.06
54022;BME280;39936;51.058;17.220;2023-07-31T15:14:31;100969.83;;;22.40;59.24
54022;BME280;39936;51.058;17.220;2023-07-31T15:17:54;100946.34;;;22.45;60.41
54022;BME280;39936;51.058;17.220;2023-07-31T15:21:57;100963.63;;;22.87;58.08
54022;BME280;39936;51.058;17.220;2023-07-31T15:25:44;100957.03;;;23.06;57.82
54022;BME280;39936;51.058;17.220;2023-07-31T15:29:20;100961.05;;;23.19;56.81
54022;BME280;39936;51.058;17.220;2023-07-31T15:33:03;100937.34;;;22.88;56.54
54022;BME280;39936;51.058;17.220;2023-07-31T15:36:52;100949.84;;;23.08;57.84
54022;BME280;39936;51.058;17.220;2023-07-31T15:40:30;100949.22;;;23.21;55.88
54022;BME280;39936;51.058;17.220;2023-07-31T15:48:06;100946.83;;;23.10;56.34
54022;BME280;39936;51.058;17.220;2023-07-31T15:55:39;100932.27;;;22.86;56.61
54022;BME280;39936;51.058;17.220;2023-07-31T15:59:25;100934.61;;;23.15;54.86
54022;BME280;39936;51.058;17.220;2023-07-31T16:03:35;100927.91;;;22.99;53.88
54022;BME280;39936;51.058;17.220;2023-07-31T16:07:36;100930.04;;;23.15;55.29
54022;BME280;39936;51.058;17.220;2023-07-31T16:11:58;100919.51;;;23.41;55.21
54022;BME280;39936;51.058;17.220;2023-07-31T16:15:39;100919.28;;;23.62;54.45
54022;BME280;39936;51.058;17.220;2023-07-31T16:18:59;100919.55;;;23.74;53.93
54022;BME280;39936;51.058;17.220;2023-07-31T16:26:03;100909.36;;;23.76;53.52
54022;BME280;39936;51.058;17.220;2023-07-31T16:29:37;100916.71;;;23.65;52.79
54022;BME280;39936;51.058;17.220;2023-07-31T16:33:12;100923.47;;;23.25;53.99
54022;BME280;39936;51.058;17.220;2023-07-31T16:37:02;100930.68;;;23.12;55.32
54022;BME280;39936;51.058;17.220;2023-07-31T16:41:03;100928.20;;;23.04;55.36
54022;BME280;39936;51.058;17.220;2023-07-31T16:44:56;100925.63;;;23.00;56.56
54022;BME280;39936;51.058;17.220;2023-07-31T16:48:43;100920.94;;;22.99;56.80
54022;BME280;39936;51.058;17.220;2023-07-31T16:52:05;100911.03;;;22.83;56.63
54022;BME280;39936;51.058;17.220;2023-07-31T16:55:54;100911.58;;;22.79;56.74
54022;BME280;39936;51.058;17.220;2023-07-31T17:00:05;100920.27;;;22.65;57.39
54022;BME280;39936;51.058;17.220;2023-07-31T17:03:44;100920.48;;;22.68;58.11
54022;BME280;39936;51.058;17.220;2023-07-31T17:06:58;100918.13;;;22.55;58.56
54022;BME280;39936;51.058;17.220;2023-07-31T17:10:48;100913.42;;;22.49;59.68
54022;BME280;39936;51.058;17.220;2023-07-31T17:14:09;100921.88;;;22.31;60.73
54022;BME280;39936;51.058;17.220;2023-07-31T17:17:45;100915.20;;;22.06;61.45
54022;BME280;39936;51.058;17.220;2023-07-31T17:21:42;100919.84;;;21.83;62.20
54022;BME280;39936;51.058;17.220;2023-07-31T17:25:53;100916.88;;;21.72;63.14
54022;BME280;39936;51.058;17.220;2023-07-31T17:29:32;100918.26;;;21.39;64.78
54022;BME280;39936;51.058;17.220;2023-07-31T17:33:02;100925.58;;;21.32;65.24
54022;BME280;39936;51.058;17.220;2023-07-31T17:36:42;100925.43;;;21.21;65.71
54022;BME280;39936;51.058;17.220;2023-07-31T17:40:04;100918.55;;;21.15;65.60
54022;BME280;39936;51.058;17.220;2023-07-31T17:43:44;100908.98;;;21.00;66.61
54022;BME280;39936;51.058;17.220;2023-07-31T17:47:40;100888.95;;;20.78;66.92
54022;BME280;39936;51.058;17.220;2023-07-31T17:51:17;100913.15;;;20.84;67.29
54022;BME280;39936;51.058;17.220;2023-07-31T17:54:54;100915.12;;;20.71;68.08
54022;BME280;39936;51.058;17.220;2023-07-31T17:58:35;100918.43;;;20.69;68.27
54022;BME280;39936;51.058;17.220;2023-07-31T18:03:04;100918.05;;;20.65;68.81
54022;BME280;39936;51.058;17.220;2023-07-31T18:06:37;100929.67;;;20.57;69.13
54022;BME280;39936;51.058;17.220;2023-07-31T18:10:13;100936.02;;;20.55;70.13
54022;BME280;39936;51.058;17.220;2023-07-31T18:14:19;100935.41;;;20.50;70.35
54022;BME280;39936;51.058;17.220;2023-07-31T18:17:41;100946.77;;;20.40;71.17
54022;BME280;39936;51.058;17.220;2023-07-31T18:21:32;100945.13;;;20.36;71.05
54022;BME280;39936;51.058;17.220;2023-07-31T18:25:24;100945.76;;;20.31;71.43
54022;BME280;39936;51.058;17.220;2023-07-31T18:28:51;100935.71;;;20.27;71.74
54022;BME280;39936;51.058;17.220;2023-07-31T18:32:55;100940.08;;;20.23;72.47
54022;BME280;39936;51.058;17.220;2023-07-31T18:36:53;100937.09;;;20.13;72.95
54022;BME280;39936;51.058;17.220;2023-07-31T18:40:11;100936.47;;;20.12;72.89
54022;BME280;39936;51.058;17.220;2023-07-31T18:43:47;100931.05;;;20.06;73.21
54022;BME280;39936;51.058;17.220;2023-07-31T18:47:23;100927.75;;;20.04;73.44
54022;BME280;39936;51.058;17.220;2023-07-31T18:51:29;100923.33;;;20.03;73.65
54022;BME280;39936;51.058;17.220;2023-07-31T18:54:59;100914.50;;;19.92;74.14
54022;BME280;39936;51.058;17.220;2023-07-31T18:58:30;100906.67;;;19.87;74.30
54022;BME280;39936;51.058;17.220;2023-07-31T19:02:04;100903.48;;;19.79;74.91
54022;BME280;39936;51.058;17.220;2023-07-31T19:05:45;100909.23;;;19.80;74.62
54022;BME280;39936;51.058;17.220;2023-07-31T19:09:11;100905.91;;;19.75;75.12
54022;BME280;39936;51.058;17.220;2023-07-31T19:12:38;100906.98;;;19.74;75.12
54022;BME280;39936;51.058;17.220;2023-07-31T19:16:33;100901.86;;;19.69;75.75
54022;BME280;39936;51.058;17.220;2023-07-31T19:20:19;100880.12;;;19.49;75.97
54022;BME280;39936;51.058;17.220;2023-07-31T19:23:42;100896.99;;;19.60;75.81
54022;BME280;39936;51.058;17.220;2023-07-31T19:27:04;100892.34;;;19.58;75.74
54022;BME280;39936;51.058;17.220;2023-07-31T19:31:03;100883.39;;;19.49;75.70
54022;BME280;39936;51.058;17.220;2023-07-31T19:38:44;100878.31;;;19.44;75.27
54022;BME280;39936;51.058;17.220;2023-07-31T19:42:25;100877.63;;;19.38;75.61
54022;BME280;39936;51.058;17.220;2023-07-31T19:46:11;100875.35;;;19.35;75.27
54022;BME280;39936;51.058;17.220;2023-07-31T19:49:34;100871.86;;;19.28;75.64
54022;BME280;39936;51.058;17.220;2023-07-31T19:53:34;100849.08;;;19.09;75.65
54022;BME280;39936;51.058;17.220;2023-07-31T19:57:23;100870.18;;;19.15;76.28
54022;BME280;39936;51.058;17.220;2023-07-31T20:01:26;100869.47;;;19.02;76.71
54022;BME280;39936;51.058;17.220;2023-07-31T20:05:08;100862.88;;;18.98;77.46
54022;BME280;39936;51.058;17.220;2023-07-31T20:12:20;100850.02;;;19.06;77.17
54022;BME280;39936;51.058;17.220;2023-07-31T20:20:44;100844.36;;;19.08;77.56
54022;BME280;39936;51.058;17.220;2023-07-31T20:24:32;100842.41;;;19.13;76.94
54022;BME280;39936;51.058;17.220;2023-07-31T20:28:15;100838.23;;;19.17;76.17
54022;BME280;39936;51.058;17.220;2023-07-31T20:32:23;100836.48;;;19.25;75.74
54022;BME280;39936;51.058;17.220;2023-07-31T20:36:01;100831.39;;;19.33;75.26
54022;BME280;39936;51.058;17.220;2023-07-31T20:39:25;100827.05;;;19.35;74.91
54022;BME280;39936;51.058;17.220;2023-07-31T20:43:01;100827.76;;;19.38;74.57
54022;BME280;39936;51.058;17.220;2023-07-31T20:46:42;100816.09;;;19.41;74.30
54022;BME280;39936;51.058;17.220;2023-07-31T20:50:22;100814.30;;;19.43;74.13
54022;BME280;39936;51.058;17.220;2023-07-31T20:58:00;100801.33;;;19.44;74.55
54022;BME280;39936;51.058;17.220;2023-07-31T21:01:14;100793.50;;;19.44;74.11
54022;BME280;39936;51.058;17.220;2023-07-31T21:04:31;100786.29;;;19.40;74.45
54022;BME280;39936;51.058;17.220;2023-07-31T21:08:18;100793.77;;;19.39;74.95
54022;BME280;39936;51.058;17.220;2023-07-31T21:11:56;100795.01;;;19.36;75.27
54022;BME280;39936;51.058;17.220;2023-07-31T21:15:41;100789.38;;;19.26;75.97
54022;BME280;39936;51.058;17.220;2023-07-31T21:19:26;100791.52;;;19.18;76.56
54022;BME280;39936;51.058;17.220;2023-07-31T21:23:14;100785.62;;;19.11;76.82